Terminal Aerodrome Forecast
Issued by NWS

Home | Current Version | Previous Version | Graphics & Text | Print | Product List | Glossary On
Versions: 1 2 3 4 5 6 7 8 9 10 11 12 13 14 15
065
FTUS43 KFGF 210520
TAFBJI
TAF
KBJI 210520Z 2106/2206 17016G23KT P6SM BKN150 WS020/19045KT
     FM210800 17015G23KT P6SM BKN140
     FM210900 17015G23KT P6SM BKN100 WS020/19045KT
     FM211200 17014KT P6SM OVC035
     FM211400 17013KT P6SM OVC015
     FM220000 26007KT P6SM BKN045
     FM220200 26007KT P6SM SCT070=

USA.gov is the U.S. government's official web portal to all federal, state and local government web resources and services.